Time;durP1;ratioP1;P1;durP2;ratioP2;P2;SDS_P1;SDS_P2;PMS_P1;PMS_P2;Temp;Humidity;BMP_temperature;BMP_pressure;BME280_temperature;BME280_humidity;BME280_pressure;Samples;Min_cycle;Max_cycle;Signal;HPM_P1;HPM_P2
2021/09/18 00:00:25;;;;;;;17.57;16.17;;;10.40;99.90;;;;;;5034138;28;20210;-77
2021/09/18 00:02:52;;;;;;;17.20;15.70;;;10.50;99.90;;;;;;5016693;28;20212;-78
2021/09/18 00:05:19;;;;;;;16.63;15.33;;;10.50;99.90;;;;;;5033892;28;20297;-78
2021/09/18 00:07:46;;;;;;;17.27;15.77;;;10.50;99.90;;;;;;5016166;28;20266;-77
2021/09/18 00:10:13;;;;;;;17.53;15.93;;;10.50;99.90;;;;;;5016047;28;20687;-78
2021/09/18 00:12:40;;;;;;;16.60;15.20;;;10.50;99.90;;;;;;5032250;28;20235;-78
2021/09/18 00:15:08;;;;;;;16.47;15.20;;;10.50;99.90;;;;;;5014904;28;20227;-77
2021/09/18 00:17:36;;;;;;;17.43;16.07;;;10.50;99.90;;;;;;5016176;28;20226;-77
2021/09/18 00:20:05;;;;;;;17.20;15.83;;;10.50;99.90;;;;;;5015880;28;20196;-78
2021/09/18 00:22:32;;;;;;;17.33;16.03;;;10.50;99.90;;;;;;5015942;28;20285;-77
2021/09/18 00:24:59;;;;;;;17.07;15.77;;;10.40;99.90;;;;;;5016029;28;20274;-78
2021/09/18 00:27:25;;;;;;;16.13;14.93;;;10.40;99.90;;;;;;5041133;28;20731;-78
2021/09/18 00:29:52;;;;;;;17.30;15.90;;;10.40;99.90;;;;;;5015919;28;20204;-78
2021/09/18 00:32:19;;;;;;;16.40;15.17;;;10.40;99.90;;;;;;5010393;28;20567;-78
2021/09/18 00:34:47;;;;;;;17.33;15.73;;;10.40;99.90;;;;;;5032819;28;20219;-78
2021/09/18 00:37:14;;;;;;;16.90;15.57;;;10.30;99.90;;;;;;5033646;28;20200;-78
2021/09/18 00:39:41;;;;;;;16.40;15.10;;;10.30;99.90;;;;;;5015755;28;20200;-78
2021/09/18 00:42:08;;;;;;;17.57;16.13;;;10.30;99.90;;;;;;5012618;28;20208;-77
2021/09/18 00:44:34;;;;;;;16.37;15.07;;;10.30;99.90;;;;;;5032295;28;20265;-77
2021/09/18 00:47:01;;;;;;;16.57;15.23;;;10.30;99.90;;;;;;5015601;28;20212;-78
2021/09/18 00:49:28;;;;;;;16.50;15.03;;;10.20;99.90;;;;;;5033091;28;20290;-78
2021/09/18 00:51:56;;;;;;;15.90;14.63;;;10.20;99.90;;;;;;5004920;28;20242;-78
2021/09/18 00:54:24;;;;;;;16.43;15.17;;;10.20;99.90;;;;;;5032995;28;20212;-78
2021/09/18 00:56:54;;;;;;;16.27;15.07;;;10.10;99.90;;;;;;5004265;28;20607;-78
2021/09/18 00:59:21;;;;;;;17.57;16.17;;;10.10;99.90;;;;;;5013887;28;20688;-78
2021/09/18 01:01:48;;;;;;;16.33;15.10;;;10.10;99.90;;;;;;5015322;28;20265;-78
2021/09/18 01:04:15;;;;;;;16.40;15.00;;;10.10;99.90;;;;;;5024236;23;20598;-78
2021/09/18 01:06:41;;;;;;;16.70;15.50;;;10.00;99.90;;;;;;4994800;28;20291;-77
2021/09/18 01:09:10;;;;;;;16.13;14.73;;;10.00;99.90;;;;;;4990115;28;20262;-77
2021/09/18 01:11:36;;;;;;;16.27;15.07;;;10.00;99.90;;;;;;5010777;28;20251;-78
2021/09/18 01:14:03;;;;;;;16.47;15.10;;;10.00;99.90;;;;;;5010939;28;20220;-77
2021/09/18 01:16:30;;;;;;;17.87;16.17;;;9.90;99.90;;;;;;4992408;28;20638;-78
2021/09/18 01:18:57;;;;;;;16.43;15.20;;;9.90;99.90;;;;;;4996109;28;20209;-77
2021/09/18 01:21:24;;;;;;;17.73;16.33;;;9.90;99.90;;;;;;4993684;28;20217;-78
2021/09/18 01:23:52;;;;;;;16.43;15.03;;;9.90;99.90;;;;;;4992787;28;20213;-77
2021/09/18 01:26:29;;;;;;;16.63;15.33;;;9.90;99.90;;;;;;4979168;28;20209;-78
2021/09/18 01:28:56;;;;;;;18.00;16.60;;;9.90;99.90;;;;;;4993067;28;20207;-77
2021/09/18 01:31:23;;;;;;;17.53;16.17;;;9.80;99.90;;;;;;4999073;28;20751;-77
2021/09/18 01:33:50;;;;;;;17.17;15.87;;;9.80;99.90;;;;;;4982439;28;20227;-78
2021/09/18 01:36:17;;;;;;;17.70;16.30;;;9.80;99.90;;;;;;4974269;28;20198;-77
2021/09/18 01:38:44;;;;;;;17.13;15.67;;;9.80;99.90;;;;;;5005806;28;20193;-78
2021/09/18 01:41:12;;;;;;;16.43;15.13;;;9.80;99.90;;;;;;4993643;28;20208;-78
2021/09/18 01:43:42;;;;;;;17.47;16.07;;;9.80;99.90;;;;;;5006967;28;20267;-78
2021/09/18 01:46:08;;;;;;;18.00;16.50;;;9.80;99.90;;;;;;4986029;28;20200;-77
2021/09/18 01:48:35;;;;;;;16.57;15.27;;;9.70;99.90;;;;;;5002079;28;20239;-78
2021/09/18 01:51:03;;;;;;;17.37;15.97;;;9.70;99.90;;;;;;4995450;28;20623;-77
2021/09/18 01:53:30;;;;;;;17.07;15.67;;;9.60;99.90;;;;;;4995027;28;20671;-77
2021/09/18 01:55:58;;;;;;;16.60;15.30;;;9.60;99.90;;;;;;4992145;28;20275;-77
2021/09/18 01:58:26;;;;;;;16.83;15.47;;;9.60;99.90;;;;;;4971771;28;20733;-78
2021/09/18 02:00:55;;;;;;;16.97;15.57;;;9.60;99.90;;;;;;4997506;28;20614;-78
2021/09/18 02:03:23;;;;;;;17.17;15.83;;;9.60;99.90;;;;;;4993922;28;21585;-77
2021/09/18 02:05:50;;;;;;;18.33;16.93;;;9.50;99.90;;;;;;4991134;28;20721;-78
2021/09/18 02:08:17;;;;;;;18.80;16.67;;;9.50;99.90;;;;;;4978108;28;20201;-77
2021/09/18 02:10:44;;;;;;;17.97;16.57;;;9.50;99.90;;;;;;4996422;28;20263;-78
2021/09/18 02:13:12;;;;;;;17.67;16.30;;;9.60;99.90;;;;;;4994052;28;20205;-78
2021/09/18 02:15:41;;;;;;;18.20;16.70;;;9.60;99.90;;;;;;4972029;28;20655;-77
2021/09/18 02:18:08;;;;;;;17.70;16.30;;;9.60;99.90;;;;;;4998738;28;20188;-78
2021/09/18 02:20:36;;;;;;;18.27;16.87;;;9.50;99.90;;;;;;4981988;28;20248;-78
2021/09/18 02:23:05;;;;;;;18.17;16.77;;;9.50;99.90;;;;;;4988149;28;20706;-77
2021/09/18 02:25:32;;;;;;;18.10;16.60;;;9.50;99.90;;;;;;5002425;28;20308;-78
2021/09/18 02:27:58;;;;;;;18.27;16.87;;;9.50;99.90;;;;;;4999430;28;20205;-77
2021/09/18 02:30:27;;;;;;;19.50;17.83;;;9.40;99.90;;;;;;4999528;28;20211;-77
2021/09/18 02:32:57;;;;;;;18.50;17.10;;;9.40;99.90;;;;;;4977864;28;20203;-78
2021/09/18 02:35:26;;;;;;;18.90;17.40;;;9.50;99.90;;;;;;4993137;28;20225;-77
2021/09/18 02:37:54;;;;;;;18.57;17.07;;;9.40;99.90;;;;;;4982685;28;20205;-78
2021/09/18 02:40:23;;;;;;;18.47;16.87;;;9.40;99.90;;;;;;4996438;28;20618;-78
2021/09/18 02:42:52;;;;;;;18.70;17.10;;;9.30;99.90;;;;;;4983317;28;20209;-80
2021/09/18 02:45:19;;;;;;;18.90;17.23;;;9.40;99.90;;;;;;4981136;28;20232;-79
2021/09/18 02:47:47;;;;;;;18.50;17.00;;;9.30;99.90;;;;;;4995032;28;20204;-79
2021/09/18 02:50:16;;;;;;;18.73;17.17;;;9.40;99.90;;;;;;5005070;28;20229;-77
2021/09/18 02:52:43;;;;;;;18.50;17.00;;;9.40;99.90;;;;;;4982605;28;20265;-79
2021/09/18 02:55:17;;;;;;;17.00;15.60;;;9.40;99.90;;;;;;4995731;28;20224;-77
2021/09/18 02:57:45;;;;;;;16.53;15.33;;;9.30;99.90;;;;;;4965716;28;20630;-77
2021/09/18 03:00:13;;;;;;;17.67;16.27;;;9.30;99.90;;;;;;4986891;28;20673;-78
2021/09/18 03:02:40;;;;;;;18.17;16.77;;;9.30;99.90;;;;;;4975199;28;20678;-78
2021/09/18 03:05:09;;;;;;;17.90;16.40;;;9.20;99.90;;;;;;4957447;28;21797;-76
2021/09/18 03:07:37;;;;;;;18.50;16.83;;;9.20;99.90;;;;;;4971889;28;20641;-77
2021/09/18 03:10:06;;;;;;;18.67;17.17;;;9.20;99.90;;;;;;4970929;28;20269;-79
2021/09/18 03:12:33;;;;;;;19.23;17.53;;;9.30;99.90;;;;;;4997532;28;20660;-76
2021/09/18 03:15:00;;;;;;;18.57;17.03;;;9.30;99.90;;;;;;4969038;28;20236;-76
2021/09/18 03:17:27;;;;;;;18.30;16.73;;;9.30;99.90;;;;;;4981644;28;20260;-76
2021/09/18 03:19:55;;;;;;;19.03;17.53;;;9.20;99.90;;;;;;4987689;28;20204;-76
2021/09/18 03:22:22;;;;;;;18.37;16.87;;;9.20;99.90;;;;;;4999265;28;20213;-76
2021/09/18 03:24:50;;;;;;;18.47;16.97;;;9.20;99.90;;;;;;4966463;28;20279;-76
2021/09/18 03:27:17;;;;;;;17.60;16.20;;;9.20;99.90;;;;;;4958803;28;20201;-76
2021/09/18 03:29:44;;;;;;;19.63;18.03;;;9.20;99.90;;;;;;4980263;28;20747;-78
2021/09/18 03:32:11;;;;;;;19.03;17.53;;;9.20;99.90;;;;;;4986876;28;20201;-78
2021/09/18 03:34:38;;;;;;;18.70;17.30;;;9.20;99.90;;;;;;4979101;28;20220;-78
2021/09/18 03:37:05;;;;;;;18.37;16.97;;;9.20;99.90;;;;;;5003254;28;20678;-78
2021/09/18 03:39:32;;;;;;;18.87;17.17;;;9.20;99.90;;;;;;4982360;28;20197;-79
2021/09/18 03:42:00;;;;;;;19.03;17.43;;;9.20;99.90;;;;;;4982249;28;20587;-78
2021/09/18 03:44:27;;;;;;;18.50;17.10;;;9.20;99.90;;;;;;4990188;28;20223;-77
2021/09/18 03:46:54;;;;;;;18.77;17.27;;;9.20;99.90;;;;;;5011874;28;20614;-78
2021/09/18 03:49:21;;;;;;;20.10;18.50;;;9.30;99.90;;;;;;4961590;28;20257;-78
2021/09/18 03:51:48;;;;;;;19.63;17.93;;;9.30;99.90;;;;;;4962048;28;20209;-78
2021/09/18 03:54:15;;;;;;;19.87;18.27;;;9.40;99.90;;;;;;4995310;28;20215;-78
2021/09/18 03:56:41;;;;;;;19.40;17.80;;;9.40;99.90;;;;;;4983248;28;20218;-78
2021/09/18 03:59:09;;;;;;;18.43;16.97;;;9.40;99.90;;;;;;4979718;28;20583;-78
2021/09/18 04:01:36;;;;;;;19.43;17.93;;;9.40;99.90;;;;;;4984520;28;20208;-78
2021/09/18 04:04:03;;;;;;;18.77;17.30;;;9.40;99.90;;;;;;4996483;28;20227;-78
2021/09/18 04:06:30;;;;;;;18.07;16.67;;;9.40;99.90;;;;;;4976747;28;21213;-79
2021/09/18 04:08:57;;;;;;;17.63;16.13;;;9.40;99.90;;;;;;4980023;28;20260;-78
2021/09/18 04:11:24;;;;;;;17.00;15.60;;;9.40;99.90;;;;;;4979156;28;20580;-78
2021/09/18 04:13:52;;;;;;;16.67;15.40;;;9.30;99.90;;;;;;4993201;28;20245;-78
2021/09/18 04:16:21;;;;;;;17.47;16.17;;;9.30;99.90;;;;;;4997178;28;20286;-78
2021/09/18 04:18:48;;;;;;;16.83;15.57;;;9.30;99.90;;;;;;5003039;28;20238;-78
2021/09/18 04:21:15;;;;;;;17.27;15.87;;;9.30;99.90;;;;;;5001120;28;20665;-78
2021/09/18 04:23:42;;;;;;;16.00;14.80;;;9.20;99.90;;;;;;5004450;28;20215;-78
2021/09/18 04:26:09;;;;;;;10.67;9.67;;;9.10;99.90;;;;;;4987863;28;20211;-78
2021/09/18 04:28:36;;;;;;;9.53;8.53;;;9.10;99.90;;;;;;4997873;28;20541;-77
2021/09/18 04:31:03;;;;;;;9.93;8.87;;;9.10;99.90;;;;;;4985743;28;20247;-78
2021/09/18 04:33:31;;;;;;;9.97;8.70;;;9.10;99.90;;;;;;4981768;28;20203;-78
2021/09/18 04:35:58;;;;;;;9.40;8.40;;;9.10;99.90;;;;;;4980344;28;20215;-77
2021/09/18 04:38:25;;;;;;;8.80;8.00;;;9.10;99.90;;;;;;4997959;28;20200;-76
2021/09/18 04:40:51;;;;;;;10.57;9.57;;;9.10;99.90;;;;;;4988317;28;20200;-77
2021/09/18 04:43:18;;;;;;;10.77;9.73;;;9.00;99.90;;;;;;4994913;28;20204;-77
2021/09/18 04:45:45;;;;;;;10.60;9.60;;;9.00;99.90;;;;;;5000664;28;20227;-77
2021/09/18 04:48:12;;;;;;;15.43;14.13;;;9.00;99.90;;;;;;4976403;28;20695;-78
2021/09/18 04:50:41;;;;;;;10.70;9.63;;;9.00;99.90;;;;;;4983811;28;20199;-77
2021/09/18 04:53:07;;;;;;;20.53;18.93;;;8.90;99.90;;;;;;4974782;28;20212;-78
2021/09/18 04:55:34;;;;;;;17.10;15.60;;;8.90;99.90;;;;;;4987414;28;20216;-77
2021/09/18 04:58:01;;;;;;;17.53;16.13;;;9.00;99.90;;;;;;4996416;28;20209;-77
2021/09/18 05:00:28;;;;;;;17.60;16.00;;;8.90;99.90;;;;;;4982678;28;20257;-78
2021/09/18 05:02:55;;;;;;;9.87;8.87;;;9.00;99.90;;;;;;4982250;28;20206;-78
2021/09/18 05:05:22;;;;;;;10.47;8.77;;;9.00;99.90;;;;;;4987167;28;20234;-77
2021/09/18 05:07:50;;;;;;;9.80;8.80;;;9.00;99.90;;;;;;4961708;28;20772;-79
2021/09/18 05:10:17;;;;;;;12.33;9.13;;;9.00;99.90;;;;;;5000761;28;20207;-80
2021/09/18 05:12:44;;;;;;;9.60;8.57;;;9.00;99.90;;;;;;4966405;28;20212;-84
2021/09/18 05:15:11;;;;;;;12.33;9.80;;;9.00;99.90;;;;;;4988666;28;20254;-78
2021/09/18 05:17:38;;;;;;;9.93;8.93;;;9.00;99.90;;;;;;4983146;28;20190;-77
2021/09/18 05:20:06;;;;;;;9.53;8.47;;;9.00;99.90;;;;;;4982805;28;20267;-79
2021/09/18 05:22:33;;;;;;;10.30;9.30;;;9.00;99.90;;;;;;4982892;28;20209;-75
2021/09/18 05:25:01;;;;;;;10.20;9.10;;;9.10;99.90;;;;;;5000630;28;20231;-75
2021/09/18 05:27:28;;;;;;;10.37;9.27;;;9.10;99.90;;;;;;4973760;28;20256;-76
2021/09/18 05:29:55;;;;;;;8.97;8.07;;;9.10;99.90;;;;;;4976746;28;20731;-75
2021/09/18 05:32:22;;;;;;;9.97;8.90;;;9.20;99.90;;;;;;4973698;28;20646;-76
2021/09/18 05:34:48;;;;;;;10.43;9.43;;;9.20;99.90;;;;;;5004574;28;20701;-75
2021/09/18 05:37:15;;;;;;;10.13;9.13;;;9.20;99.90;;;;;;4990076;28;20198;-75
2021/09/18 05:39:42;;;;;;;10.20;9.03;;;9.20;99.90;;;;;;4981844;28;20219;-75
2021/09/18 05:42:10;;;;;;;10.60;8.83;;;9.30;99.90;;;;;;4972052;28;20274;-76
2021/09/18 05:44:37;;;;;;;9.37;8.37;;;9.30;99.90;;;;;;4969283;28;20280;-76
2021/09/18 05:47:04;;;;;;;9.97;8.97;;;9.40;99.90;;;;;;4995854;28;20682;-76
2021/09/18 05:49:31;;;;;;;9.73;8.77;;;9.50;99.90;;;;;;4996599;28;20211;-76
2021/09/18 05:51:58;;;;;;;10.13;9.13;;;9.60;99.90;;;;;;4985335;28;20202;-76
2021/09/18 05:54:24;;;;;;;9.90;8.70;;;9.70;99.90;;;;;;4974135;28;20316;-77
2021/09/18 05:56:51;;;;;;;9.33;8.37;;;9.80;99.90;;;;;;4990699;28;20200;-76
2021/09/18 05:59:19;;;;;;;10.30;8.97;;;9.90;99.90;;;;;;4993690;28;20207;-76
2021/09/18 06:01:46;;;;;;;8.97;8.07;;;10.00;99.90;;;;;;4982499;28;20752;-76
2021/09/18 06:04:13;;;;;;;16.53;15.33;;;10.10;99.90;;;;;;4993949;28;20246;-75
2021/09/18 06:06:40;;;;;;;16.33;15.23;;;10.20;99.90;;;;;;4993218;28;20304;-76
2021/09/18 06:09:07;;;;;;;17.07;15.73;;;10.20;99.90;;;;;;4985055;28;20268;-76
2021/09/18 06:11:33;;;;;;;16.37;15.17;;;10.20;99.90;;;;;;4975775;28;20213;-75
2021/09/18 06:14:00;;;;;;;16.70;15.53;;;10.30;99.90;;;;;;4986148;28;20229;-76
2021/09/18 06:16:28;;;;;;;17.33;15.87;;;10.40;99.90;;;;;;4970352;28;20754;-76
2021/09/18 06:18:55;;;;;;;16.27;15.07;;;10.50;99.90;;;;;;4995664;28;20194;-76
2021/09/18 06:21:22;;;;;;;16.07;14.97;;;10.60;99.90;;;;;;4975662;28;20208;-76
2021/09/18 06:23:49;;;;;;;15.33;14.23;;;10.60;99.90;;;;;;4983718;28;20259;-75
2021/09/18 06:26:16;;;;;;;15.53;14.43;;;10.60;99.90;;;;;;4981909;28;20250;-76
2021/09/18 06:28:43;;;;;;;16.23;15.03;;;10.70;99.90;;;;;;4976222;28;20646;-76
2021/09/18 06:31:10;;;;;;;15.80;14.60;;;10.70;99.90;;;;;;4985763;28;20208;-76
2021/09/18 06:33:38;;;;;;;16.23;15.03;;;10.80;99.90;;;;;;4993509;28;20194;-76
2021/09/18 06:36:06;;;;;;;15.43;14.33;;;10.80;99.90;;;;;;4992757;28;20243;-76
2021/09/18 06:38:33;;;;;;;15.30;14.20;;;10.90;99.90;;;;;;4990776;28;20206;-75
2021/09/18 06:41:00;;;;;;;14.27;13.27;;;11.00;99.90;;;;;;4997409;28;20193;-75
2021/09/18 06:43:28;;;;;;;10.80;9.90;;;11.00;99.90;;;;;;4996374;28;20304;-76
2021/09/18 06:45:56;;;;;;;8.77;7.97;;;11.10;99.90;;;;;;4991697;28;20712;-76
2021/09/18 06:48:23;;;;;;;8.07;7.27;;;11.20;99.90;;;;;;4991516;28;20212;-76
2021/09/18 06:50:51;;;;;;;7.83;7.07;;;11.30;99.90;;;;;;4980054;28;20197;-76
2021/09/18 06:53:18;;;;;;;8.10;7.30;;;11.40;99.90;;;;;;4992665;28;20207;-80
2021/09/18 06:55:47;;;;;;;10.90;9.47;;;11.40;99.90;;;;;;4978662;28;20264;-87
2021/09/18 06:58:14;;;;;;;15.67;14.57;;;11.60;99.90;;;;;;4979345;28;20682;-81
2021/09/18 07:00:41;;;;;;;15.77;14.50;;;11.70;99.90;;;;;;4991148;28;20268;-78
2021/09/18 07:03:07;;;;;;;10.17;9.20;;;11.90;99.90;;;;;;4995520;28;20256;-78
2021/09/18 07:05:34;;;;;;;7.50;6.70;;;12.30;99.90;;;;;;5023136;23;20224;-77
2021/09/18 07:08:03;;;;;;;6.77;6.17;;;12.60;99.90;;;;;;5031244;28;20270;-78
2021/09/18 07:10:30;;;;;;;13.13;12.23;;;13.00;99.90;;;;;;5011393;28;20202;-76
2021/09/18 07:12:58;;;;;;;15.03;13.93;;;13.30;99.90;;;;;;5017527;28;20197;-77
2021/09/18 07:15:25;;;;;;;14.47;13.47;;;13.70;99.90;;;;;;4998396;28;20223;-78
2021/09/18 07:17:52;;;;;;;10.53;9.73;;;14.20;99.90;;;;;;4998376;28;20203;-77
2021/09/18 07:20:18;;;;;;;7.37;6.67;;;14.50;99.90;;;;;;5007680;28;20238;-77
2021/09/18 07:22:45;;;;;;;7.97;7.17;;;14.80;99.90;;;;;;5008088;28;20208;-78
2021/09/18 07:25:14;;;;;;;10.07;9.27;;;15.10;99.90;;;;;;5007500;28;20225;-77
2021/09/18 07:27:41;;;;;;;14.00;13.00;;;15.40;99.90;;;;;;4991749;28;20636;-78
2021/09/18 07:30:09;;;;;;;14.60;13.60;;;15.70;99.90;;;;;;5003432;28;20697;-78
2021/09/18 07:32:36;;;;;;;8.57;7.83;;;16.10;99.90;;;;;;5006115;28;20205;-78
2021/09/18 07:35:06;;;;;;;11.73;10.93;;;16.40;99.90;;;;;;5009181;28;20214;-78
2021/09/18 07:37:34;;;;;;;11.57;10.73;;;16.70;99.90;;;;;;4993936;28;20234;-78
2021/09/18 07:40:02;;;;;;;13.93;12.97;;;17.10;99.90;;;;;;4995743;28;20739;-78
2021/09/18 07:42:30;;;;;;;8.80;8.00;;;17.30;99.90;;;;;;4993563;28;20202;-78
2021/09/18 07:44:57;;;;;;;7.63;6.93;;;17.50;99.90;;;;;;4992232;28;20214;-78
2021/09/18 07:47:23;;;;;;;9.20;7.67;;;17.80;99.90;;;;;;5005948;28;20207;-75
2021/09/18 07:49:50;;;;;;;12.67;11.67;;;18.00;99.90;;;;;;5004333;28;20267;-75
2021/09/18 07:52:17;;;;;;;13.77;12.53;;;18.30;99.90;;;;;;5003384;28;20269;-76
2021/09/18 07:54:44;;;;;;;13.73;12.63;;;18.40;99.90;;;;;;4989775;28;20300;-76
2021/09/18 07:57:11;;;;;;;12.97;12.07;;;18.60;99.90;;;;;;4985075;28;20252;-76
2021/09/18 07:59:39;;;;;;;13.50;12.60;;;18.50;99.90;;;;;;4993521;28;20197;-76
2021/09/18 08:02:06;;;;;;;10.07;9.17;;;18.70;99.90;;;;;;5006156;28;20193;-76
2021/09/18 08:04:33;;;;;;;8.03;7.23;;;18.80;99.90;;;;;;4985657;28;20219;-76
2021/09/18 08:07:00;;;;;;;11.87;10.87;;;18.90;99.90;;;;;;5011228;28;20193;-76
2021/09/18 08:09:27;;;;;;;10.33;9.53;;;19.10;99.90;;;;;;5003019;28;20205;-76
2021/09/18 08:11:54;;;;;;;8.57;7.87;;;19.30;99.90;;;;;;5012102;28;20243;-76
2021/09/18 08:14:21;;;;;;;6.43;5.83;;;19.40;99.90;;;;;;5008176;28;20204;-76
2021/09/18 08:16:50;;;;;;;8.83;7.93;;;19.30;99.90;;;;;;5008458;28;20198;-76
2021/09/18 08:19:17;;;;;;;8.70;8.00;;;19.40;99.90;;;;;;4985048;28;20225;-74
2021/09/18 08:21:44;;;;;;;8.93;8.13;;;19.60;99.90;;;;;;5005110;28;20199;-76
2021/09/18 08:24:11;;;;;;;9.13;8.37;;;19.70;99.90;;;;;;5010296;28;20198;-76
2021/09/18 08:26:38;;;;;;;8.40;7.70;;;19.70;99.90;;;;;;5010180;28;20217;-76
2021/09/18 08:29:06;;;;;;;8.37;7.77;;;20.10;99.90;;;;;;4989892;28;20209;-76
2021/09/18 08:31:32;;;;;;;14.27;13.27;;;20.20;99.90;;;;;;5012991;28;20293;-76
2021/09/18 08:34:00;;;;;;;7.20;5.43;;;20.30;99.90;;;;;;5003918;28;20261;-76
2021/09/18 08:36:27;;;;;;;11.60;10.70;;;20.40;99.90;;;;;;4997760;28;20227;-76
2021/09/18 08:38:54;;;;;;;7.97;7.27;;;20.70;99.90;;;;;;5008361;28;20673;-76
2021/09/18 08:41:21;;;;;;;12.40;11.50;;;20.90;99.90;;;;;;5004943;28;20716;-76
2021/09/18 08:43:48;;;;;;;12.60;11.70;;;21.00;99.90;;;;;;4987729;28;20193;-76
2021/09/18 08:46:18;;;;;;;13.90;12.90;;;21.10;99.90;;;;;;4988670;28;20229;-76
2021/09/18 08:48:46;;;;;;;12.27;11.37;;;21.00;99.90;;;;;;4995329;28;20240;-76
2021/09/18 08:51:15;;;;;;;13.53;12.63;;;20.90;99.90;;;;;;4986659;28;20229;-77
2021/09/18 08:53:42;;;;;;;12.90;12.00;;;20.80;99.90;;;;;;5003970;28;20209;-76
2021/09/18 08:56:09;;;;;;;12.97;12.03;;;20.80;99.90;;;;;;4989968;28;20649;-76
2021/09/18 08:58:35;;;;;;;13.10;12.20;;;20.90;99.90;;;;;;4984185;28;20215;-76
2021/09/18 09:01:03;;;;;;;12.77;11.77;;;21.10;99.90;;;;;;5007772;28;20273;-76
2021/09/18 09:03:32;;;;;;;13.50;12.50;;;21.40;99.90;;;;;;5006387;28;20207;-76
2021/09/18 09:06:05;;;;;;;14.30;13.10;;;21.50;99.90;;;;;;4987439;28;20351;-76
2021/09/18 09:08:34;;;;;;;11.70;10.90;;;21.40;99.90;;;;;;5011745;28;20201;-76
2021/09/18 09:11:15;;;;;;;11.83;11.03;;;21.60;99.90;;;;;;5011576;28;20275;-76
2021/09/18 09:13:54;;;;;;;13.27;12.33;;;21.60;99.90;;;;;;5010197;28;20224;-76
2021/09/18 09:16:21;;;;;;;10.40;9.70;;;21.60;99.90;;;;;;5013818;28;20291;-76
2021/09/18 09:18:48;;;;;;;12.43;11.53;;;21.80;99.90;;;;;;5010534;28;20197;-77
2021/09/18 09:21:18;;;;;;;11.40;10.50;;;22.10;99.90;;;;;;4992515;28;20678;-77
2021/09/18 09:24:03;;;;;;;12.87;11.97;;;22.40;99.90;;;;;;5010869;28;20208;-77
2021/09/18 09:26:30;;;;;;;11.57;10.77;;;22.50;99.90;;;;;;4993854;28;20245;-77
2021/09/18 09:29:00;;;;;;;12.53;11.63;;;22.50;99.90;;;;;;5011300;28;20223;-77
2021/09/18 09:31:29;;;;;;;11.57;10.67;;;22.40;99.90;;;;;;5008891;28;20201;-76
2021/09/18 09:34:15;;;;;;;12.13;10.97;;;22.10;99.90;;;;;;5004649;28;20272;-76
2021/09/18 09:36:44;;;;;;;11.27;10.47;;;21.70;99.90;;;;;;4988512;28;20208;-76
2021/09/18 09:39:15;;;;;;;13.17;12.27;;;21.70;99.90;;;;;;5011692;28;20649;-77
2021/09/18 09:41:46;;;;;;;12.60;11.70;;;21.90;99.90;;;;;;5010412;28;20347;-77
2021/09/18 09:44:14;;;;;;;12.33;11.43;;;22.00;99.90;;;;;;5012211;28;20246;-77
2021/09/18 09:46:42;;;;;;;12.70;11.60;;;22.10;99.90;;;;;;5003821;28;20217;-77
2021/09/18 09:49:12;;;;;;;13.47;12.37;;;22.10;99.90;;;;;;5002471;28;20193;-77
2021/09/18 09:51:40;;;;;;;11.73;10.87;;;21.70;99.90;;;;;;5010530;28;20672;-77
2021/09/18 09:54:23;;;;;;;11.43;10.57;;;21.70;99.90;;;;;;4990762;28;20477;-77
2021/09/18 09:57:07;;;;;;;11.50;10.70;;;21.70;99.90;;;;;;4994256;28;20566;-77
2021/09/18 09:59:33;;;;;;;10.87;10.07;;;21.20;99.90;;;;;;4985804;28;20558;-77
2021/09/18 10:02:01;;;;;;;11.00;10.20;;;21.00;99.90;;;;;;4990519;28;20621;-76
2021/09/18 10:04:27;;;;;;;10.17;9.37;;;20.90;99.90;;;;;;5015829;28;20689;-77
2021/09/18 10:06:55;;;;;;;10.50;9.67;;;21.00;99.90;;;;;;4998149;28;20283;-77
2021/09/18 10:09:24;;;;;;;10.77;9.97;;;21.00;99.90;;;;;;5007800;28;20661;-76
2021/09/18 10:11:54;;;;;;;10.97;10.17;;;21.10;99.90;;;;;;5003845;28;20224;-77
2021/09/18 10:14:24;;;;;;;11.10;10.30;;;21.10;99.90;;;;;;4991330;28;20302;-77
2021/09/18 10:16:55;;;;;;;10.53;9.77;;;20.90;99.90;;;;;;5007909;28;20197;-77
2021/09/18 10:19:40;;;;;;;9.67;8.97;;;21.10;99.90;;;;;;5004614;28;20209;-77
2021/09/18 10:24:53;;;;;;;11.67;10.77;;;21.10;99.90;;;;;;4992480;28;20644;-77
2021/09/18 10:27:22;;;;;;;11.53;10.70;;;20.70;99.90;;;;;;5005378;28;20267;-78
2021/09/18 10:29:51;;;;;;;10.73;9.97;;;20.50;99.90;;;;;;5007814;28;20210;-76
2021/09/18 10:32:21;;;;;;;10.57;9.87;;;20.30;99.90;;;;;;4988916;28;20217;-77
2021/09/18 10:34:48;;;;;;;10.37;9.67;;;20.30;99.90;;;;;;5009375;28;20230;-77
2021/09/18 10:37:31;;;;;;;9.93;9.23;;;20.40;99.90;;;;;;4996999;28;20196;-77
2021/09/18 10:40:04;;;;;;;9.57;8.90;;;20.40;99.90;;;;;;5010467;28;20208;-77
2021/09/18 10:42:33;;;;;;;9.37;8.67;;;20.50;99.90;;;;;;4995121;28;20672;-77
2021/09/18 10:45:01;;;;;;;9.47;8.87;;;20.50;99.90;;;;;;5001166;28;20225;-77
2021/09/18 10:47:37;;;;;;;9.23;8.63;;;20.60;99.90;;;;;;5012099;28;20319;-77
2021/09/18 10:50:05;;;;;;;9.10;8.50;;;20.40;99.90;;;;;;4996264;28;20235;-76
2021/09/18 10:52:35;;;;;;;9.17;8.50;;;20.40;99.90;;;;;;5013793;28;20242;-79
2021/09/18 10:55:12;;;;;;;9.20;8.60;;;20.30;99.90;;;;;;5011780;28;20231;-78
2021/09/18 10:58:04;;;;;;;9.17;8.37;;;20.30;99.90;;;;;;4990670;28;20211;-79
2021/09/18 11:00:43;;;;;;;9.43;8.83;;;20.20;99.90;;;;;;5010912;28;20200;-78
2021/09/18 11:03:11;;;;;;;9.30;8.63;;;20.20;99.90;;;;;;5007408;28;20218;-78
2021/09/18 11:05:46;;;;;;;8.87;8.27;;;20.10;99.90;;;;;;4987370;28;20792;-79
2021/09/18 11:08:25;;;;;;;8.97;8.37;;;20.10;99.90;;;;;;4990247;28;20307;-80
2021/09/18 11:10:55;;;;;;;8.33;7.73;;;20.10;99.90;;;;;;5000763;28;20187;-82
2021/09/18 11:13:25;;;;;;;8.77;8.17;;;20.20;99.90;;;;;;4996605;28;20672;-80
2021/09/18 11:15:53;;;;;;;8.80;8.20;;;20.20;99.90;;;;;;5001264;28;20215;-79
2021/09/18 11:18:29;;;;;;;8.83;8.23;;;20.10;99.90;;;;;;4979921;28;20216;-81
2021/09/18 11:21:17;;;;;;;8.47;7.87;;;20.20;99.90;;;;;;4993337;28;20589;-79
2021/09/18 11:23:49;;;;;;;7.97;7.47;;;20.20;99.90;;;;;;4994789;28;20208;-77
2021/09/18 11:26:37;;;;;;;8.20;7.70;;;20.30;99.90;;;;;;4992046;28;20227;-77
2021/09/18 11:29:17;;;;;;;8.30;7.80;;;20.40;99.90;;;;;;5009307;28;20703;-77
2021/09/18 11:32:12;;;;;;;8.50;7.90;;;20.40;99.90;;;;;;5013976;28;20203;-77
2021/09/18 11:34:41;;;;;;;8.20;7.60;;;20.30;99.90;;;;;;4995561;28;20238;-77
2021/09/18 11:37:11;;;;;;;8.17;7.57;;;20.30;99.90;;;;;;4992573;28;20212;-77
2021/09/18 11:39:44;;;;;;;8.57;7.97;;;20.30;99.90;;;;;;5014700;28;20210;-77
2021/09/18 11:42:19;;;;;;;8.90;8.30;;;20.40;99.90;;;;;;4988777;28;20368;-77
2021/09/18 11:44:48;;;;;;;8.37;7.87;;;20.30;99.90;;;;;;5003251;28;20588;-78
2021/09/18 11:47:21;;;;;;;8.80;8.30;;;20.20;99.90;;;;;;5005606;28;20269;-77
2021/09/18 11:49:47;;;;;;;8.50;7.90;;;20.30;99.90;;;;;;4984301;28;20740;-77
2021/09/18 11:52:14;;;;;;;8.60;8.00;;;20.20;99.90;;;;;;5014799;28;20608;-77
2021/09/18 11:54:41;;;;;;;8.20;7.70;;;20.10;99.90;;;;;;4988207;28;20287;-77
2021/09/18 11:57:14;;;;;;;8.57;7.97;;;20.20;99.90;;;;;;5008366;28;20737;-77
2021/09/18 11:59:41;;;;;;;8.10;7.53;;;20.20;99.90;;;;;;4995059;28;20212;-77
2021/09/18 12:02:07;;;;;;;8.13;7.53;;;20.30;99.90;;;;;;4992884;28;20242;-77
2021/09/18 12:04:40;;;;;;;8.40;7.80;;;20.40;99.90;;;;;;5003051;28;20234;-79
2021/09/18 12:07:07;;;;;;;8.23;7.63;;;20.40;99.90;;;;;;4997668;28;20225;-80
2021/09/18 12:09:35;;;;;;;8.10;7.60;;;20.40;99.90;;;;;;5002801;28;20200;-79
2021/09/18 12:12:02;;;;;;;8.87;8.23;;;20.40;99.90;;;;;;5011661;28;20695;-79
2021/09/18 12:14:34;;;;;;;8.83;8.17;;;20.50;99.90;;;;;;4990510;28;20202;-79
2021/09/18 12:17:13;;;;;;;8.10;7.60;;;20.40;99.90;;;;;;4991206;28;20210;-79
2021/09/18 12:19:40;;;;;;;8.63;8.03;;;20.50;99.90;;;;;;4996330;28;20217;-79
2021/09/18 12:22:07;;;;;;;8.30;7.77;;;20.60;99.90;;;;;;4993360;28;20199;-79
2021/09/18 12:24:37;;;;;;;8.20;7.60;;;20.50;99.90;;;;;;4993062;28;20218;-81
2021/09/18 12:27:22;;;;;;;9.17;8.37;;;20.50;99.90;;;;;;5003656;28;20557;-80
2021/09/18 12:29:57;;;;;;;9.27;8.53;;;20.50;99.90;;;;;;4987044;28;20225;-80
2021/09/18 12:32:24;;;;;;;8.60;8.00;;;20.50;99.90;;;;;;4992812;28;20202;-80
2021/09/18 12:34:51;;;;;;;8.50;7.90;;;20.40;99.90;;;;;;5002149;28;20216;-78
2021/09/18 12:37:18;;;;;;;8.00;7.50;;;20.40;99.90;;;;;;4988004;28;20207;-78
2021/09/18 12:39:44;;;;;;;8.30;7.60;;;20.50;99.90;;;;;;5011303;28;20198;-80
2021/09/18 12:42:16;;;;;;;8.63;8.03;;;20.50;99.90;;;;;;5006761;28;20197;-81
2021/09/18 12:44:44;;;;;;;8.00;7.50;;;20.50;99.90;;;;;;4988256;28;20280;-80
2021/09/18 12:47:23;;;;;;;8.73;8.07;;;20.50;99.90;;;;;;4989371;28;20229;-81